Terminal Aerodrome Forecast
Issued by NWS

Home | Current Version | Previous Version | Text Only | Print | Product List | Glossary On
Versions: 1 2 3 4 5 6 7 8 9 10 11 12 13 14 15 16
000
FTUS43 KICT 261347 AAA
TAFCNU
TAF AMD
KCNU 261347Z 2614/2712 35022G30KT P6SM SCT020 BKN150
      TEMPO 2614/2616 BKN022
     FM261600 35022G26KT P6SM SCT025 SCT150
     FM270000 36013KT P6SM SKC=

USA.gov is the U.S. government's official web portal to all federal, state and local government web resources and services.